Terminal Aerodrome Forecast
Issued by NWS

Home | Current Version | Previous Version | Text Only | Print | Product List | Glossary On
Versions: 1 2 3 4 5 6 7 8 9 10 11 12 13 14 15 16 17 18 19 20 21 22 23 24 25 26 27 28 29 30 31 32 33 34 35 36 37 38 39 40 41
000
FTUS44 KHGX 011313 AAA
TAFLBX
TAF AMD
KLBX 011313Z 0113/0212 14004KT 4SM -RA BR OVC004
     FM011400 12007KT P6SM VCSH SCT004 BKN015
     FM011800 11008KT P6SM VCTS BKN040CB
     FM020100 09004KT P6SM OVC025
     FM020300 08010KT P6SM VCSH BKN015
     FM020800 03010KT P6SM VCTS BKN025CB=

USA.gov is the U.S. government's official web portal to all federal, state and local government web resources and services.